Alejandro Ramirez

Recruteur en chef - Independiente Medellin
6 Août 2028
Dimanche
Processus

Personnalité

Adaptabilité (18) Ambition (9) Controverse (19) Loyauté (11) Pression (15) Professionnalisme (14) Sportivité (3) Tempérament (5)

Profil

Style d'entraînement Démocratique
Diplôme Continental B
Détermination 4
Gestion des joueurs 9
Motivation 5
Discipline 6
Satisfaction professionnelle
100%
Fatigue
0%
Rôle Recruteur en chef
Salaire 19.1K p/s
Contrat 14.03.2029

Performance

Comportement Bon
Efficacité de l'entraînement
39%
Développement des joueurs
50%
Prévention des blessures
25%
Mise en place tactique
25%

Événements récents

A participé à une réunion de recrutement maintenant
A recommandé une cible de transfert maintenant
A participé à une réunion de recrutement 7j
A recommandé une cible de transfert 7j
A recommandé une cible de transfert 7j
A participé à une réunion de recrutement 7j
A recommandé une cible de transfert 14j
A recommandé une cible de transfert 14j

Suivi en cours

206
Joueur Club Statut Capacité Confiance Observé Dernière observation Dernier vote
Máximo Munarriz San Telmo Actif 93 / 103 40% 1 01.06.2028 -
Christos Mouzakitis Hull City Actif 151 / 135 40% 1 01.06.2028 -
Christian Saydee Wigan Athletic Actif 99 / 113 40% 1 31.05.2028 -
Patson Daka Leicester City Actif 143 / 138 40% 1 31.05.2028 -
Nazareno Roselli Defensa y Justicia Actif 120 / 124 40% 6 28.12.2027 -
Lucas Høgsberg RC Strasbourg Actif 128 / 138 40% 1 28.12.2027 -
Freddy Espinal Real Santander Actif 104 / 102 44% 1 13.12.2027 -
Alan Cantero Juan Aurich Actif 113 / 119 40% 1 04.12.2027 -
Brandon Vázquez Austin FC Actif 113 / 120 40% 1 04.12.2027 -
Ramiro Ruiz Rodríguez Atlético Tucumán Actif 115 / 122 40% 2 30.11.2027 -
Bénie Traoré New York City Actif 125 / 133 40% 2 30.11.2027 -
Ivan Borges Defensores Actif 82 / 90 40% 4 10.11.2027 -
Nahuel Leivas Montevideo City Torque Actif 116 / 108 40% 3 09.11.2027 -
Matias Siltanen Malmo FF Actif 135 / 119 40% 4 08.11.2027 -
Adrian Skogmar Malmo FF Actif 108 / 127 40% 1 08.11.2027 -
Olaniyi Saheed Kwara United Actif 74 / 98 40% 2 06.11.2027 -
Hosea Michael Remo Stars Actif 81 / 95 40% 3 06.11.2027 -
Victor Hernandez Santa Fe Actif 125 / 127 40% 3 04.11.2027 -
Diego Vargas Universidad de Concepcion Actif 100 / 92 40% 2 03.11.2027 -
Melvin Vučenović Persson Atvidaberg Actif 72 / 88 40% 1 03.11.2027 -
Agustín Obregón River Plate Actif 102 / 115 40% 2 02.11.2027 -
Joel Ezra Enyimba Actif 89 / 93 40% 4 02.11.2027 -
Onyeuche Ujunwa Ikorodu City Actif 89 / 98 40% 1 01.11.2027 -
Colin Guske Orlando City Actif 104 / 97 40% 1 29.10.2027 -
Yury Oyarzo Racing Actif 100 / 104 40% 3 28.10.2027 -
Ignacio Fernández Boston River Actif 101 / 100 40% 3 27.10.2027 -
Matías Canedo Rampla Juniors Actif 97 / 95 40% 1 27.10.2027 -
Azizbek To'lqinbekov Bunyodkor Actif 100 / 99 40% 1 20.10.2027 -
Godwin Oham Warri Wolves Actif 99 / 99 40% 3 19.10.2027 -
Isaías Silva Miramar Misiones Actif 66 / 81 40% 1 19.10.2027 -
Tiago Gordillo San Miguel Actif 85 / 92 40% 3 18.10.2027 -
Issa Yusuf Shooting Stars Actif 73 / 89 40% 2 11.10.2027 -
Óscar Hinojosa Metropolitanos Actif 91 / 80 40% 3 10.10.2027 -
Aaron Branca Artigas Actif 79 / 88 40% 1 08.10.2027 -
David Damboama El-Kanemi Warriors Actif 105 / 90 40% 1 07.10.2027 -
Toheeb Adebayo Shooting Stars Actif 71 / 78 40% 1 03.10.2027 -
Luciano Posadas Central Córdoba SdE Actif 100 / 102 40% 2 30.09.2027 -
Daniel Idoko Ikorodu City Actif 113 / 91 40% 1 29.09.2027 -
Juan Camilo Córdoba Deportivo Pereira Actif 91 / 95 40% 1 28.09.2027 -
Celías Ingenthron Platense Actif 122 / 117 40% 1 22.09.2027 -
Francisco Machis Llaneros Actif 74 / 86 40% 2 19.09.2027 -
Chibueze Oputa Rangers International Actif 110 / 99 40% 1 18.09.2027 -
Mpho Khethang FC Diarra Actif 90 / 97 40% 1 17.09.2027 -
Alejandro Leiva Patronato Actif 102 / 98 40% 1 16.09.2027 -
Nicolás Blanco San Lorenzo Actif 107 / 106 40% 1 16.09.2027 -
Esteban de Lima Tacuarembo Actif 101 / 99 40% 1 12.09.2027 -
Riley Owen Stevenage Actif 95 / 114 40% 3 02.06.2027 -
Caleb Yirenkyi Coventry City Actif 127 / 134 40% 1 02.06.2027 -
Radek Vítek Middlesbrough Actif 144 / 138 40% 9 29.05.2027 -
Elia Boseggia Novara Actif 94 / 114 40% 4 29.05.2027 -
Francesco D'Alterio Ternana Actif 116 / 113 40% 5 27.05.2027 -
Federico Losas Chacarita Juniors Actif 119 / 111 40% 2 24.05.2027 -
Mauro Silveira Junior Actif 138 / 127 40% 1 24.05.2027 -
Elia Caprile Cagliari Actif 144 / 143 40% 4 23.05.2027 -
Robin Roefs Sunderland Actif 166 / 139 40% 3 23.05.2027 -
William Rovida Pro Patria Actif 116 / 99 40% 2 21.05.2027 -
Sławomir Abramowicz Jagiellonia Actif 135 / 121 40% 6 18.05.2027 -
Anthony Patterson Wrexham Actif 112 / 134 40% 3 18.05.2027 -
Fabrizio Correa Juventud Actif 122 / 119 40% 2 17.05.2027 -
Luciano Jachfe Nueva Chicago Actif 112 / 123 40% 2 17.05.2027 -
Nathan Bishop AFC Wimbledon Actif 116 / 99 40% 3 15.05.2027 -
Maduka Okoye Udinese Actif 154 / 138 40% 2 14.05.2027 -
Miguel Acosta Argentinos Juniors Actif 109 / 116 40% 1 13.05.2027 -
Jenson Jones Walsall Actif 101 / 103 40% 1 07.05.2027 -
Sascha Britschgi AC Milan Actif 125 / 128 40% 1 05.05.2027 -
Ivor Pandur Hull City Actif 140 / 133 40% 4 04.05.2027 -
Alejandro Rodríguez Melgar Actif 118 / 129 40% 1 02.05.2027 -
James Trafford Leeds United Actif 151 / 142 40% 5 26.04.2027 -
Tarek Bousseder ES Setif Actif 90 / 105 40% 1 23.04.2027 -
Diego Romero Universitario Actif 114 / 129 40% 1 22.04.2027 -
Charlie Gray Fleetwood Town Actif 106 / 95 40% 1 21.04.2027 -
Hirving Reyes Veracruz Actif 93 / 91 40% 1 20.04.2027 -
Andrii Kozhukhar Veres Actif 98 / 112 40% 1 16.04.2027 -
Cesare Galeotti Trapani Actif 89 / 99 40% 2 14.04.2027 -
Jan Bačkovský Dukla Prague Actif 95 / 104 40% 2 09.04.2027 -
Rivaldo Mkhize Black Aces Actif 86 / 93 40% 2 09.04.2027 -
Deniz Ertaş Konyaspor Actif 103 / 129 40% 1 09.04.2027 -
Chari Giwa US Bougouni Actif 77 / 72 40% 1 09.04.2027 -
Myles Roberts Cambridge United Actif 90 / 109 40% 1 06.04.2027 -
Will Dennis Milton Keynes Dons Actif 127 / 99 40% 1 06.04.2027 -
Leandro Martins Benfica Actif 86 / 92 40% 2 03.04.2027 -
Samuele Diodato Lumezzane Actif 113 / 97 40% 2 01.04.2027 -
Heorhii Yermakov Metalist Actif 136 / 111 40% 1 01.04.2027 -
Matteo Rizzo Cosenza Actif 92 / 109 40% 1 28.03.2027 -
Kazunari Kita Real Sociedad Actif 108 / 111 40% 2 27.03.2027 -
Bilal Bayazıt Kayserispor Actif 112 / 127 40% 1 27.03.2027 -
Body Samir ENPPI Actif 91 / 102 40% 1 24.03.2027 -
Sergio Barlocco Trento Actif 98 / 106 40% 1 21.03.2027 -
Alexandr Koryakin Krasnodar Actif 106 / 124 40% 2 20.03.2027 -
James Dornelly Peterborough United Actif 94 / 107 40% 1 20.03.2027 -
Gianluca Saro Foggia Actif 94 / 116 40% 1 17.03.2027 -
Gonçalo Oliveira Benfica Actif 125 / 107 40% 1 17.03.2027 -
David Ozoh Derby County Actif 101 / 135 40% 1 17.03.2027 -
Jan Bürger Northampton Town Actif 126 / 118 40% 1 16.03.2027 -
Zach Hemming Chesterfield Actif 93 / 99 40% 3 12.03.2027 -
Tiago Freitas Benfica Actif 99 / 110 40% 1 10.03.2027 -
Joaquin Seys Club Brugge Actif 121 / 132 40% 1 08.03.2027 -
Andreas Jungdal Westerlo Actif 125 / 130 40% 2 07.03.2027 -
Edwin Asamoah Berekum Chelsea Actif 65 / 80 40% 1 04.03.2027 -
Lukas Jensen Millwall Actif 98 / 127 40% 3 01.03.2027 -
Fran Vieites Walsall Actif 99 / 123 40% 1 28.02.2027 -
Oufa Shobeir MC Alger Actif 137 / 132 40% 1 25.02.2027 -
Samu Maccabi Netanya Actif 132 / 117 40% 1 24.02.2027 -
Martin Velichkov Lokomotiv Sofia Actif 101 / 96 40% 1 19.02.2027 -
Murphy Cooper Plymouth Argyle Actif 98 / 118 40% 5 16.02.2027 -
Arthur Beroe Actif 119 / 118 40% 3 11.02.2027 -
Ludovico Del Sorbo Sorrento Actif 97 / 106 40% 1 10.02.2027 -
Filip Marschall Stevenage Actif 96 / 116 40% 1 08.02.2027 -
Tomás Ahumada Audax Italiano Actif 110 / 116 40% 1 07.02.2027 -
Josh Keeley Luton Town Actif 114 / 124 40% 1 06.02.2027 -
Marcus Bundgaard SonderjyskE Actif 97 / 113 40% 1 05.02.2027 -
Strahinja Manojlović Radnicki Nis Actif 98 / 106 40% 2 02.02.2027 -
Lander Astiazarán Real Sociedad Actif 124 / 104 40% 1 02.02.2027 -
Mathys Tel Tottenham Actif 164 / 142 40% 1 02.02.2027 -
Doğan Alemdar Basaksehir Actif 99 / 109 40% 1 20.01.2027 -
Luis Ingolotti Atlético Tucumán Actif 129 / 128 40% 1 14.01.2027 -
Carlos Jimenez Veracruz Actif 96 / 111 40% 1 29.12.2026 -
Rodrigo López Pumas UNAM Actif 94 / 125 40% 1 29.12.2026 -
Emmanuel Boateng Hapoel Tel Aviv Actif 113 / 126 40% 1 21.12.2026 -
Carlos Álvarez Club America Actif 156 / 143 40% 2 15.12.2026 -
Israel Reyes Toulouse FC Actif 137 / 137 68% 1 01.12.2026 Approuver
Stanislav Agkatsev Brentford Actif 132 / 133 66% 1 01.12.2026 Approuver
Duk Atlas Actif 109 / 112 40% 1 01.12.2026 -
Tomás Molina Argentinos Juniors Actif 123 / 132 40% 1 01.12.2026 -
Morgan Guilavogui Real Salt Lake Actif 107 / 116 40% 1 28.11.2026 -
Alan Lescano Argentinos Juniors Actif 119 / 124 40% 2 27.11.2026 -
Gustavo Del Prete San Lorenzo Actif 123 / 116 40% 1 27.11.2026 -
Marcelo Allende Mamelodi Sundowns Actif 112 / 119 40% 1 27.11.2026 -
Carlos Forbs Club Brugge Actif 110 / 143 40% 4 25.11.2026 -
Sota Kitano Red Bull Salzburg Actif 109 / 125 40% 1 25.11.2026 -
Kevin Castañeda Guadalajara Actif 131 / 126 40% 1 25.11.2026 -
Yousef Salech Cardiff City Actif 142 / 116 40% 2 23.11.2026 -
Leo Ceara Kashima Antlers Actif 147 / 140 40% 5 22.11.2026 -
Alexis Cuello San Lorenzo Actif 118 / 123 40% 3 22.11.2026 -
Tomás Conechny Racing Club Actif 125 / 131 40% 1 20.11.2026 Plus d'infos
Antony Alonso Deportivo Riestra Actif 122 / 127 40% 2 19.11.2026 -
Marcelo Torres Gimnasia La Plata Actif 118 / 116 40% 2 18.11.2026 -
Erik Lira Cruz Azul Actif 150 / 134 40% 1 18.11.2026 -
Rick Talleres Actif 117 / 120 40% 1 18.11.2026 -
Aurélien Scheidler Charleroi Actif 107 / 125 40% 1 18.11.2026 -
Ignacio Russo Tigre Actif 131 / 129 40% 1 17.11.2026 Plus d'infos
Tiago Palacios Estudiantes Actif 138 / 124 40% 3 16.11.2026 -
Alexander Díaz Deportivo Riestra Actif 122 / 112 40% 1 16.11.2026 -
Brian Rodríguez Club America Actif 146 / 120 40% 1 14.11.2026 -
Jhonatan Candia Barracas Central Actif 120 / 128 40% 2 13.11.2026 -
Juninho Pumas UNAM Actif 142 / 121 40% 6 10.11.2026 -
Alejandro Gómez Tijuana Actif 128 / 111 40% 1 09.11.2026 -
Enzo Copetti Rosario Central Actif 118 / 119 40% 2 08.11.2026 -
Nicolò Tresoldi Club Brugge Actif 130 / 144 40% 1 08.11.2026 -
César Ibáñez Huracán Actif 137 / 124 40% 2 06.11.2026 -
Roberto de la Rosa Monterrey Actif 100 / 128 40% 1 06.11.2026 -
Rodrigo Bogarín Barracas Central Actif 108 / 121 40% 1 04.11.2026 -
Edwuin Cetré Estudiantes Actif 119 / 120 40% 1 02.11.2026 -
Mariano Bracamonte Deportivo Riestra Actif 118 / 116 40% 1 01.11.2026 -
Rodrigo González Mitre Actif 128 / 111 40% 1 30.10.2026 -
Petar Musa FC Dallas Actif 160 / 140 40% 1 23.10.2026 -
Hugo Cuypers Monterrey Actif 139 / 133 40% 4 22.10.2026 -
Ignacio Ramírez Newell's Old Boys Actif 135 / 128 40% 2 20.10.2026 -
Diego Rossi Monterrey Actif 147 / 129 40% 3 16.10.2026 -
Alejo Cruz Juventud Actif 119 / 116 40% 1 16.10.2026 -
Juan Cruz de los Santos Nacional Actif 136 / 121 40% 1 15.10.2026 -
David Barbona Defensa y Justicia Actif 111 / 128 40% 2 11.10.2026 -
Lautaro Ríos Banfield Actif 128 / 116 40% 1 11.10.2026 -
Germán Berterame Inter Miami CF Actif 120 / 128 40% 1 10.10.2026 -
Rafael Santos Borré River Plate Actif 143 / 135 40% 1 10.10.2026 -
Santiago Rodríguez Gimnasia y Esgrima Actif 106 / 120 40% 1 09.10.2026 -
Ismael Díaz Leon Actif 105 / 126 40% 1 06.10.2026 -
Mauro Méndez Tigre Actif 114 / 125 40% 1 06.10.2026 -
Gastón Benedetti Estudiantes Actif 117 / 119 40% 1 05.10.2026 -
Cheikh Sabaly Vancouver Whitecaps Actif 120 / 117 40% 1 26.09.2026 -
Bruno Larregui Juventud Actif 109 / 119 40% 1 26.09.2026 -
Gonzalo Carneiro Sparta Prague Actif 110 / 122 40% 3 22.09.2026 -
Martín Ojeda Orlando City Actif 123 / 126 40% 2 19.09.2026 -
Rodrigo Aguirre Actif 126 / 121 40% 3 15.09.2026 -
Enes Ünal Getafe Actif 117 / 139 40% 1 13.09.2026 -
Timo Werner San Jose Earthquakes Actif 137 / 123 40% 2 12.09.2026 -
Brian White Vancouver Whitecaps Actif 101 / 131 40% 3 10.09.2026 -
Santiago Simón Toluca Actif 142 / 122 40% 1 09.09.2026 -
Santiago Toloza O'Higgins Actif 137 / 127 40% 1 09.09.2026 -
Leandro Suhr Boston River Actif 126 / 112 40% 1 09.09.2026 -
Luciano Cosentino Wanderers Actif 116 / 120 40% 1 08.09.2026 -
Jonatan Torres Cerro Porteno Actif 133 / 117 40% 1 08.09.2026 -
João Klauss LA Galaxy Actif 139 / 121 40% 1 04.09.2026 -
Justo Giani Umraniyespor Actif 101 / 127 40% 1 29.08.2026 -
Kévin Denkey FC Cincinnati Actif 132 / 117 40% 1 28.08.2026 -
Dániel Gazdag New England Revolution Actif 110 / 138 40% 1 24.08.2026 -
Guilherme Houston Dynamo Actif 130 / 122 40% 1 23.08.2026 -
Kevin Álvarez Club America Actif 154 / 125 40% 2 20.08.2026 Plus d'infos
Gerardo Arteaga Monterrey Actif 149 / 133 40% 1 20.08.2026 -
Josh Sargent Toronto FC Actif 109 / 121 40% 1 18.08.2026 -
Myrto Uzuni Austin FC Actif 119 / 122 40% 1 18.08.2026 -
Jorge Sánchez Atlas Actif 132 / 131 40% 1 15.08.2026 -
Jhohan Romaña Leon Actif 142 / 131 40% 1 14.08.2026 -
Luis Romo Guadalajara Actif 137 / 131 40% 1 13.08.2026 -
Jhojan Valencia Universidad Catolica Actif 114 / 120 40% 1 12.08.2026 -
Willer Ditta Cruz Azul Actif 147 / 129 40% 1 12.08.2026 -
Rubén Duarte Pumas UNAM Actif 110 / 133 40% 1 11.08.2026 -
Renzo Garcés Alianza Lima Actif 110 / 117 40% 1 11.08.2026 -
Jesus Ferreira Seattle Sounders Actif 112 / 130 40% 1 09.08.2026 -
Pedro Pedraza Pachuca Actif 100 / 109 40% 1 08.08.2026 -
Nathan Silva Pumas UNAM Actif 110 / 138 40% 1 07.08.2026 -
Enzo Giménez Queretaro Actif 134 / 117 40% 1 05.08.2026 -
Víctor Felipe Méndez Colo-Colo Actif 117 / 112 40% 1 05.08.2026 -
César Araújo Tigres Actif 116 / 129 40% 1 03.08.2026 -
Lucas Abascia Queretaro Actif 139 / 122 40% 1 03.08.2026 -
Jorge Morel Cerro Porteno Actif 127 / 113 40% 1 02.08.2026 -